Time;durP1;ratioP1;P1;durP2;ratioP2;P2;SDS_P1;SDS_P2;PMS_P1;PMS_P2;Temp;Humidity;BMP_temperature;BMP_pressure;BME280_temperature;BME280_humidity;BME280_pressure;Samples;Min_cycle;Max_cycle;Signal;HPM_P1;HPM_P2
2022/08/09 00:00:29;;;;;;;;;;;17.00;99.90;;;;;;5007728;28;19975;-80
2022/08/09 00:02:55;;;;;;;;;;;16.90;99.90;;;;;;5010946;28;19999;-80
2022/08/09 00:05:23;;;;;;;;;;;16.90;99.90;;;;;;5014098;28;20456;-80
2022/08/09 00:07:49;;;;;;;;;;;16.90;99.90;;;;;;5014750;28;19999;-79
2022/08/09 00:10:16;;;;;;;;;;;16.90;99.90;;;;;;4999447;28;20285;-80
2022/08/09 00:12:43;;;;;;;;;;;16.90;99.90;;;;;;5005942;28;19933;-80
2022/08/09 00:15:12;;;;;;;;;;;17.00;99.90;;;;;;4995593;28;19940;-79
2022/08/09 00:17:39;;;;;;;;;;;17.00;99.90;;;;;;5006237;28;20404;-79
2022/08/09 00:20:06;;;;;;;;;;;17.00;99.90;;;;;;5009206;28;19926;-79
2022/08/09 00:22:33;;;;;;;;;;;17.00;99.90;;;;;;5029454;28;19925;-79
2022/08/09 00:25:00;;;;;;;;;;;17.00;99.90;;;;;;5014561;28;19929;-79
2022/08/09 00:27:27;;;;;;;;;;;17.00;99.90;;;;;;5025723;28;19924;-80
2022/08/09 00:29:54;;;;;;;;;;;17.00;99.90;;;;;;5016675;28;20408;-78
2022/08/09 00:32:22;;;;;;;;;;;17.00;99.90;;;;;;5032688;28;20324;-79
2022/08/09 00:34:49;;;;;;;;;;;17.00;99.90;;;;;;5015114;28;19948;-79
2022/08/09 00:37:16;;;;;;;;;;;17.10;99.90;;;;;;5014907;28;20026;-79
2022/08/09 00:39:42;;;;;;;;;;;17.20;99.90;;;;;;5013023;28;20363;-79
2022/08/09 00:42:09;;;;;;;;;;;17.20;99.90;;;;;;5013778;28;20429;-79
2022/08/09 00:44:36;;;;;;;;;;;17.30;99.90;;;;;;5015214;28;20309;-79
2022/08/09 00:47:03;;;;;;;;;;;17.30;99.90;;;;;;5031911;28;19952;-79
2022/08/09 00:49:31;;;;;;;;;;;17.30;99.90;;;;;;5014429;28;19940;-80
2022/08/09 00:51:58;;;;;;;;;;;17.30;99.90;;;;;;5011265;28;19991;-78
2022/08/09 00:54:32;;;;;;;;;;;17.30;99.90;;;;;;5009109;28;19963;-79
2022/08/09 00:57:01;;;;;;;;;;;17.30;99.90;;;;;;5020341;28;20007;-79
2022/08/09 00:59:28;;;;;;;;;;;17.30;99.90;;;;;;5002537;28;20510;-79
2022/08/09 01:01:55;;;;;;;;;;;17.30;99.90;;;;;;5025839;28;19933;-80
2022/08/09 01:04:26;;;;;;;;;;;17.30;99.90;;;;;;5009390;28;19941;-80
2022/08/09 01:07:00;;;;;;;;;;;17.40;99.90;;;;;;5000105;28;19975;-81
2022/08/09 01:09:32;;;;;;;;;;;17.40;99.90;;;;;;5012239;28;19932;-82
2022/08/09 01:12:00;;;;;;;;;;;17.40;99.90;;;;;;5010255;28;20294;-82
2022/08/09 01:14:33;;;;;;;;;;;17.40;99.90;;;;;;5010259;28;20021;-81
2022/08/09 01:17:03;;;;;;;;;;;17.40;99.90;;;;;;5019443;28;19933;-81
2022/08/09 01:19:39;;;;;;;;;;;17.30;99.90;;;;;;5003597;28;19933;-81
2022/08/09 01:22:13;;;;;;;;;;;17.30;99.90;;;;;;5022696;28;19929;-81
2022/08/09 01:24:46;;;;;;;;;;;17.30;99.90;;;;;;5011540;28;20034;-82
2022/08/09 01:27:15;;;;;;;;;;;17.30;99.90;;;;;;5008826;28;19983;-81
2022/08/09 01:29:43;;;;;;;;;;;17.20;99.90;;;;;;5008511;28;19930;-79
2022/08/09 01:32:11;;;;;;;;;;;17.20;99.90;;;;;;5007428;28;19937;-80
2022/08/09 01:34:39;;;;;;;;;;;17.10;99.90;;;;;;5004046;28;19975;-79
2022/08/09 01:37:08;;;;;;;;;;;17.10;99.90;;;;;;5006117;28;19925;-79
2022/08/09 01:39:36;;;;;;;;;;;17.10;99.90;;;;;;5023535;28;19960;-80
2022/08/09 01:42:04;;;;;;;;;;;17.10;99.90;;;;;;5022358;28;19929;-80
2022/08/09 01:44:33;;;;;;;;;;;17.00;99.90;;;;;;5009624;28;19957;-80
2022/08/09 01:47:01;;;;;;;;;;;17.00;99.90;;;;;;5025464;28;19933;-80
2022/08/09 01:49:30;;;;;;;;;;;16.90;99.90;;;;;;5027050;28;19952;-80
2022/08/09 01:51:59;;;;;;;;;;;16.90;99.90;;;;;;5001931;28;19941;-80
2022/08/09 01:54:29;;;;;;;;;;;16.90;99.90;;;;;;5009343;28;19934;-81
2022/08/09 01:56:58;;;;;;;;;;;16.90;99.90;;;;;;5009800;28;19926;-80
2022/08/09 01:59:25;;;;;;;;;;;16.90;99.90;;;;;;5030692;28;19934;-80
2022/08/09 02:01:54;;;;;;;;;;;16.90;99.90;;;;;;5008532;28;19937;-80
2022/08/09 02:04:22;;;;;;;;;;;16.90;99.90;;;;;;5008724;28;19939;-80
2022/08/09 02:07:10;;;;;;;;;;;16.90;99.90;;;;;;5007264;28;19930;-80
2022/08/09 02:09:40;;;;;;;;;;;17.00;99.90;;;;;;5007698;28;20020;-80
2022/08/09 02:12:08;;;;;;;;;;;16.90;99.90;;;;;;5024808;28;21195;-80
2022/08/09 02:14:35;;;;;;;;;;;17.00;99.90;;;;;;5023201;28;19933;-80
2022/08/09 02:17:05;;;;;;;;;;;16.90;99.90;;;;;;5007059;28;20463;-80
2022/08/09 02:19:32;;;;;;;;;;;16.90;99.90;;;;;;5027067;28;19929;-79
2022/08/09 02:22:01;;;;;;;;;;;16.40;99.90;;;;;;5008570;28;19941;-80
2022/08/09 02:24:30;;;;;;;;;;;16.90;99.90;;;;;;5009164;28;19925;-80
2022/08/09 02:27:00;;;;;;;;;;;16.90;99.90;;;;;;5006135;28;20027;-81
2022/08/09 02:29:29;;;;;;;;;;;16.90;99.90;;;;;;5003387;28;19933;-81
2022/08/09 02:31:58;;;;;;;;;;;16.90;99.90;;;;;;5005675;28;20550;-81
2022/08/09 02:34:29;;;;;;;;;;;16.80;99.90;;;;;;5008820;28;19992;-81
2022/08/09 02:36:57;;;;;;;;;;;16.80;99.90;;;;;;5023844;28;20006;-80
2022/08/09 02:39:26;;;;;;;;;;;16.80;99.90;;;;;;5021905;28;20019;-80
2022/08/09 02:41:56;;;;;;;;;;;16.80;99.90;;;;;;5005232;28;19932;-80
2022/08/09 02:44:25;;;;;;;;;;;16.80;99.90;;;;;;5021436;28;20344;-80
2022/08/09 02:46:54;;;;;;;;;;;16.80;99.90;;;;;;5020067;28;20003;-80
2022/08/09 02:49:21;;;;;;;;;;;16.70;99.90;;;;;;5005756;28;19944;-80
2022/08/09 02:51:53;;;;;;;;;;;16.70;99.90;;;;;;5022423;28;19934;-80
2022/08/09 02:54:21;;;;;;;;;;;16.70;99.90;;;;;;5006611;28;19936;-83
2022/08/09 02:56:49;;;;;;;;;;;16.60;99.90;;;;;;5021677;28;20654;-82
2022/08/09 02:59:18;;;;;;;;;;;16.60;99.90;;;;;;5022964;28;19983;-82
2022/08/09 03:01:46;;;;;;;;;;;16.60;99.90;;;;;;5018352;28;20000;-82
2022/08/09 03:04:13;;;;;;;;;;;16.60;99.90;;;;;;5007658;28;19991;-80
2022/08/09 03:06:44;;;;;;;;;;;16.50;99.90;;;;;;5005416;28;19933;-80
2022/08/09 03:09:13;;;;;;;;;;;16.50;99.90;;;;;;5006186;28;20315;-82
2022/08/09 03:11:40;;;;;;;;;;;16.50;99.90;;;;;;5008998;28;19944;-80
2022/08/09 03:14:08;;;;;;;;;;;16.40;99.90;;;;;;5019186;28;19933;-81
2022/08/09 03:16:35;;;;;;;;;;;16.40;99.90;;;;;;5004163;28;19992;-82
2022/08/09 03:19:02;;;;;;;;;;;16.30;99.90;;;;;;5003656;28;20420;-82
2022/08/09 03:21:29;;;;;;;;;;;16.40;99.90;;;;;;5019531;28;19937;-80
2022/08/09 03:23:56;;;;;;;;;;;16.40;99.90;;;;;;5008475;28;20526;-79
2022/08/09 03:26:24;;;;;;;;;;;16.40;99.90;;;;;;5004614;28;20577;-80
2022/08/09 03:28:54;;;;;;;;;;;16.40;99.90;;;;;;5018416;28;19929;-80
2022/08/09 03:31:21;;;;;;;;;;;16.40;99.90;;;;;;5005321;28;19929;-80
2022/08/09 03:33:49;;;;;;;;;;;16.30;99.90;;;;;;5024414;28;19933;-81
2022/08/09 03:36:16;;;;;;;;;;;16.30;99.90;;;;;;5008840;28;19932;-82
2022/08/09 03:38:43;;;;;;;;;;;16.20;99.90;;;;;;5012871;28;19932;-81
2022/08/09 03:41:11;;;;;;;;;;;16.00;99.90;;;;;;5004292;28;19969;-82
2022/08/09 03:43:40;;;;;;;;;;;16.10;99.90;;;;;;5024157;28;19979;-83
2022/08/09 03:46:10;;;;;;;;;;;16.20;99.90;;;;;;5007354;28;19933;-82
2022/08/09 03:48:37;;;;;;;;;;;16.20;99.90;;;;;;5000113;28;20000;-81
2022/08/09 03:51:06;;;;;;;;;;;16.30;99.90;;;;;;5002034;28;19935;-82
2022/08/09 03:53:33;;;;;;;;;;;16.30;99.90;;;;;;5002892;28;19933;-82
2022/08/09 03:56:00;;;;;;;;;;;16.30;99.90;;;;;;5021714;28;20026;-80
2022/08/09 03:58:27;;;;;;;;;;;16.30;99.90;;;;;;5006187;28;19936;-81
2022/08/09 04:00:56;;;;;;;;;;;16.30;99.90;;;;;;5019284;28;19929;-81
2022/08/09 04:03:23;;;;;;;;;;;16.30;99.90;;;;;;5003265;28;19933;-81
2022/08/09 04:05:50;;;;;;;;;;;16.30;99.90;;;;;;5020835;28;21294;-84
2022/08/09 04:08:17;;;;;;;;;;;16.20;99.90;;;;;;4998310;28;20896;-77
2022/08/09 04:10:44;;;;;;;;;;;16.20;99.90;;;;;;4998184;28;19940;-76
2022/08/09 04:13:11;;;;;;;;;;;16.30;99.90;;;;;;5017788;28;20388;-76
2022/08/09 04:15:38;;;;;;;;;;;16.30;99.90;;;;;;5011786;28;20308;-78
2022/08/09 04:18:10;;;;;;;;;;;16.20;99.90;;;;;;5014926;28;19929;-79
2022/08/09 04:20:37;;;;;;;;;;;16.20;99.90;;;;;;5015666;28;19929;-81
2022/08/09 04:23:06;;;;;;;;;;;16.20;99.90;;;;;;5015699;28;20027;-81
2022/08/09 04:25:34;;;;;;;;;;;16.30;99.90;;;;;;5017884;28;19967;-82
2022/08/09 04:28:01;;;;;;;;;;;16.30;99.90;;;;;;5033548;28;19957;-79
2022/08/09 04:30:28;;;;;;;;;;;16.40;99.90;;;;;;5018230;28;19980;-84
2022/08/09 04:32:58;;;;;;;;;;;16.40;99.90;;;;;;5013865;28;19925;-82
2022/08/09 04:35:28;;;;;;;;;;;16.40;99.90;;;;;;5012620;28;19953;-82
2022/08/09 04:37:55;;;;;;;;;;;16.40;99.90;;;;;;5020459;28;20403;-82
2022/08/09 04:40:46;;;;;;;;;;;16.40;99.90;;;;;;5013652;28;20355;-83
2022/08/09 04:43:09;;;;;;;;;;;16.40;99.90;;;;;;5012034;28;19925;-86
2022/08/09 04:45:36;;;;;;;;;;;16.40;99.90;;;;;;5027675;28;19929;-83
2022/08/09 04:48:04;;;;;;;;;;;16.40;99.90;;;;;;5007740;28;20293;-84
2022/08/09 04:50:32;;;;;;;;;;;16.40;99.90;;;;;;5026412;28;20039;-84
2022/08/09 04:52:59;;;;;;;;;;;16.50;99.90;;;;;;5034880;28;19961;-82
2022/08/09 04:55:29;;;;;;;;;;;16.50;99.90;;;;;;5013136;28;19992;-81
2022/08/09 04:57:56;;;;;;;;;;;16.50;99.90;;;;;;5013034;28;19935;-82
2022/08/09 05:00:23;;;;;;;;;;;16.40;99.90;;;;;;5023929;28;20300;-81
2022/08/09 05:02:51;;;;;;;;;;;16.50;99.90;;;;;;5041388;28;19939;-82
2022/08/09 05:05:18;;;;;;;;;;;16.50;99.90;;;;;;5038669;28;19953;-81
2022/08/09 05:07:47;;;;;;;;;;;16.60;99.90;;;;;;5036185;28;19925;-83
2022/08/09 05:10:14;;;;;;;;;;;16.70;99.90;;;;;;5023145;28;19968;-81
2022/08/09 05:12:41;;;;;;;;;;;16.80;99.90;;;;;;5038638;28;19939;-79
2022/08/09 05:15:09;;;;;;;;;;;16.90;99.90;;;;;;5019085;28;19933;-81
2022/08/09 05:17:36;;;;;;;;;;;16.90;99.90;;;;;;5017693;28;19925;-80
2022/08/09 05:20:04;;;;;;;;;;;16.90;99.90;;;;;;5027113;28;20385;-80
2022/08/09 05:22:31;;;;;;;;;;;17.00;99.90;;;;;;5023658;28;19929;-81
2022/08/09 05:24:59;;;;;;;;;;;17.10;99.90;;;;;;5021145;28;19925;-80
2022/08/09 05:27:26;;;;;;;;;;;17.20;99.90;;;;;;5018796;28;19996;-79
2022/08/09 05:29:56;;;;;;;;;;;17.20;99.90;;;;;;5019517;28;19940;-83
2022/08/09 05:32:24;;;;;;;;;;;17.30;99.90;;;;;;5020258;28;19986;-83
2022/08/09 05:34:50;;;;;;;;;;;17.50;99.90;;;;;;5026921;28;20299;-82
2022/08/09 05:37:18;;;;;;;;;;;17.70;99.90;;;;;;5015896;28;19929;-79
2022/08/09 05:39:45;;;;;;;;;;;17.90;99.90;;;;;;5023855;28;19936;-78
2022/08/09 05:42:14;;;;;;;;;;;18.40;99.90;;;;;;5031431;28;19940;-78
2022/08/09 05:44:41;;;;;;;;;;;19.50;99.90;;;;;;5023761;28;19929;-78
2022/08/09 05:47:08;;;;;;;;;;;20.70;99.90;;;;;;5006102;28;20012;-83
2022/08/09 05:49:35;;;;;;;;;;;21.90;99.90;;;;;;5006784;28;19928;-83
2022/08/09 05:52:03;;;;;;;;;;;23.00;99.90;;;;;;5020196;28;19925;-87
2022/08/09 05:54:30;;;;;;;;;;;23.90;99.90;;;;;;5039395;28;19929;-82
2022/08/09 05:56:58;;;;;;;;;;;24.60;99.90;;;;;;5014727;28;20502;-80
2022/08/09 05:59:26;;;;;;;;;;;25.50;99.90;;;;;;5001187;28;20262;-78
2022/08/09 06:01:53;;;;;;;;;;;26.30;99.90;;;;;;5031040;28;20025;-78
2022/08/09 06:04:20;;;;;;;;;;;27.00;99.90;;;;;;5039483;28;19932;-78
2022/08/09 06:06:47;;;;;;;;;;;27.90;99.90;;;;;;5020135;28;20038;-80
2022/08/09 06:09:14;;;;;;;;;;;28.70;99.90;;;;;;5048397;28;19928;-80
2022/08/09 06:11:41;;;;;;;;;;;29.20;99.90;;;;;;5028205;28;19939;-78
2022/08/09 06:14:08;;;;;;;;;;;29.40;99.90;;;;;;5017002;28;19928;-80
2022/08/09 06:16:36;;;;;;;;;;;29.20;99.90;;;;;;5031857;28;19951;-77
2022/08/09 06:19:03;;;;;;;;;;;29.30;99.90;;;;;;5017878;28;19969;-76
2022/08/09 06:21:30;;;;;;;;;;;29.60;99.90;;;;;;5012127;28;19933;-82
2022/08/09 06:23:57;;;;;;;;;;;30.00;99.90;;;;;;5014732;28;19932;-82
2022/08/09 06:26:24;;;;;;;;;;;30.70;99.90;;;;;;5042968;28;19932;-83
2022/08/09 06:28:52;;;;;;;;;;;31.20;99.90;;;;;;5023770;28;20371;-80
2022/08/09 06:31:20;;;;;;;;;;;31.80;99.90;;;;;;5010268;28;19934;-79
2022/08/09 06:33:48;;;;;;;;;;;31.60;97.80;;;;;;5027161;28;19930;-83
2022/08/09 06:36:15;;;;;;;;;;;31.70;98.30;;;;;;5011439;28;19925;-81
2022/08/09 06:38:46;;;;;;;;;;;31.70;95.70;;;;;;5008914;28;20064;-79
2022/08/09 06:41:20;;;;;;;;;;;31.60;94.90;;;;;;5015629;28;19928;-81
2022/08/09 06:43:47;;;;;;;;;;;31.40;94.40;;;;;;5008357;28;19953;-82
2022/08/09 06:46:14;;;;;;;;;;;31.40;94.80;;;;;;5012517;28;19926;-80
2022/08/09 06:48:41;;;;;;;;;;;31.70;94.40;;;;;;5023822;28;19984;-78
2022/08/09 06:51:10;;;;;;;;;;;31.80;92.40;;;;;;5028659;28;19979;-79
2022/08/09 06:53:37;;;;;;;;;;;31.70;92.10;;;;;;5025933;28;20068;-81
2022/08/09 06:56:05;;;;;;;;;;;31.50;92.10;;;;;;5040130;28;19933;-81
2022/08/09 06:58:31;;;;;;;;;;;31.40;92.40;;;;;;5009490;28;20059;-81
2022/08/09 07:00:58;;;;;;;;;;;31.80;92.50;;;;;;5025220;28;20316;-82
2022/08/09 07:03:26;;;;;;;;;;;32.30;91.60;;;;;;5017119;28;20027;-82
2022/08/09 07:05:54;;;;;;;;;;;32.20;90.40;;;;;;5023875;28;20339;-79
2022/08/09 07:08:22;;;;;;;;;;;32.20;88.90;;;;;;5024383;28;19936;-80
2022/08/09 07:10:50;;;;;;;;;;;31.70;88.70;;;;;;5018281;28;20116;-80
2022/08/09 07:13:17;;;;;;;;;;;31.50;89.00;;;;;;5016664;28;19945;-78
2022/08/09 07:15:44;;;;;;;;;;;31.50;90.40;;;;;;5021839;28;19925;-81
2022/08/09 07:18:11;;;;;;;;;;;32.10;90.50;;;;;;5032409;28;20376;-82
2022/08/09 07:20:38;;;;;;;;;;;32.90;88.00;;;;;;5017570;28;19925;-81
2022/08/09 07:23:05;;;;;;;;;;;33.20;86.10;;;;;;5016642;28;19936;-80
2022/08/09 07:25:33;;;;;;;;;;;33.20;83.80;;;;;;5014494;28;19983;-80
2022/08/09 07:28:01;;;;;;;;;;;33.00;82.90;;;;;;5015858;28;20019;-82
2022/08/09 07:30:29;;;;;;;;;;;32.50;84.20;;;;;;5014668;28;19929;-79
2022/08/09 07:32:57;;;;;;;;;;;32.70;86.10;;;;;;5033644;28;19925;-80
2022/08/09 07:35:25;;;;;;;;;;;33.30;86.10;;;;;;5016237;28;20520;-81
2022/08/09 07:37:52;;;;;;;;;;;33.50;81.60;;;;;;5028592;28;19944;-83
2022/08/09 07:40:19;;;;;;;;;;;33.80;82.80;;;;;;5016509;28;20031;-82
2022/08/09 07:42:54;;;;;;;;;;;33.90;80.70;;;;;;5022514;28;19932;-82
2022/08/09 07:45:24;;;;;;;;;;;33.60;79.40;;;;;;5013412;28;19937;-80
2022/08/09 07:47:51;;;;;;;;;;;32.80;79.40;;;;;;5010020;28;19939;-81
2022/08/09 07:50:18;;;;;;;;;;;32.70;80.80;;;;;;5021407;28;19990;-81
2022/08/09 07:52:45;;;;;;;;;;;32.80;80.70;;;;;;5023676;28;19929;-81
2022/08/09 07:55:16;;;;;;;;;;;32.90;78.40;;;;;;5024301;28;19925;-81
2022/08/09 07:57:46;;;;;;;;;;;32.80;78.80;;;;;;5023253;28;19972;-81
2022/08/09 08:00:15;;;;;;;;;;;32.80;78.30;;;;;;5023052;28;19951;-82
2022/08/09 08:02:42;;;;;;;;;;;32.60;78.70;;;;;;5042436;28;19929;-82
2022/08/09 08:05:09;;;;;;;;;;;32.70;80.00;;;;;;5023620;28;19980;-81
2022/08/09 08:07:36;;;;;;;;;;;32.90;80.80;;;;;;5024206;28;20332;-81
2022/08/09 08:10:04;;;;;;;;;;;33.70;79.20;;;;;;5022685;28;20039;-81
2022/08/09 08:12:34;;;;;;;;;;;33.70;79.30;;;;;;5022900;28;20011;-81
2022/08/09 08:15:01;;;;;;;;;;;34.00;77.30;;;;;;5029092;28;20676;-82
2022/08/09 08:17:29;;;;;;;;;;;34.00;76.20;;;;;;5010704;28;20015;-83
2022/08/09 08:19:59;;;;;;;;;;;33.70;76.20;;;;;;5011906;28;19948;-82
2022/08/09 08:22:26;;;;;;;;;;;33.70;75.80;;;;;;5022793;28;19925;-81
2022/08/09 08:24:55;;;;;;;;;;;33.90;75.20;;;;;;5004970;28;20027;-81
2022/08/09 08:27:23;;;;;;;;;;;33.90;74.40;;;;;;5003349;28;20028;-80
2022/08/09 08:29:50;;;;;;;;;;;33.40;75.00;;;;;;5004701;28;20274;-80
2022/08/09 08:32:17;;;;;;;;;;;33.50;75.00;;;;;;5003142;28;20533;-80
2022/08/09 08:34:46;;;;;;;;;;;33.80;73.90;;;;;;5000723;28;19984;-81
2022/08/09 08:37:13;;;;;;;;;;;33.80;74.00;;;;;;4997719;28;19933;-80
2022/08/09 08:39:43;;;;;;;;;;;33.90;72.80;;;;;;5007238;28;19933;-80
2022/08/09 08:42:10;;;;;;;;;;;33.70;73.10;;;;;;5005582;28;20028;-79
2022/08/09 08:44:37;;;;;;;;;;;33.40;73.10;;;;;;5008576;28;19925;-79
2022/08/09 08:47:04;;;;;;;;;;;33.20;72.60;;;;;;5009991;28;19930;-80
2022/08/09 08:49:33;;;;;;;;;;;32.70;72.90;;;;;;5013526;28;19929;-79
2022/08/09 08:52:01;;;;;;;;;;;32.40;73.80;;;;;;5026351;28;19959;-80
2022/08/09 08:54:28;;;;;;;;;;;32.40;74.40;;;;;;5024135;28;19946;-78
2022/08/09 08:56:56;;;;;;;;;;;32.30;73.40;;;;;;5012037;28;20015;-79
2022/08/09 08:59:22;;;;;;;;;;;32.10;74.00;;;;;;5012908;28;19979;-78
2022/08/09 09:01:51;;;;;;;;;;;31.80;74.10;;;;;;5014119;28;19933;-78
2022/08/09 09:04:19;;;;;;;;;;;31.90;75.30;;;;;;5011753;28;19936;-78
2022/08/09 09:06:48;;;;;;;;;;;31.70;73.90;;;;;;5031697;28;19979;-78
2022/08/09 09:09:17;;;;;;;;;;;31.40;75.10;;;;;;5013499;28;19925;-79
2022/08/09 09:11:44;;;;;;;;;;;31.30;76.50;;;;;;5011290;28;19938;-78
2022/08/09 09:14:14;;;;;;;;;;;31.50;76.10;;;;;;5015424;28;19925;-79
2022/08/09 09:16:41;;;;;;;;;;;31.40;75.10;;;;;;5020592;28;19929;-79
2022/08/09 09:19:10;;;;;;;;;;;31.10;74.30;;;;;;5019228;28;19991;-78
2022/08/09 09:21:54;;;;;;;;;;;30.90;74.80;;;;;;5016241;28;19925;-78
2022/08/09 09:24:28;;;;;;;;;;;30.80;75.70;;;;;;5020254;28;19925;-78
2022/08/09 09:26:57;;;;;;;;;;;30.60;75.40;;;;;;5012425;28;20389;-78
2022/08/09 09:29:34;;;;;;;;;;;30.40;75.80;;;;;;4960141;28;22351;-78
2022/08/09 09:32:02;;;;;;;;;;;30.30;76.20;;;;;;4966269;28;20569;-81
2022/08/09 09:34:29;;;;;;;;;;;30.50;77.20;;;;;;4970196;28;19933;-82
2022/08/09 09:36:58;;;;;;;;;;;30.50;75.50;;;;;;4991398;28;19940;-82
2022/08/09 09:39:27;;;;;;;;;;;30.50;75.90;;;;;;5004027;28;20023;-81
2022/08/09 09:41:55;;;;;;;;;;;30.60;75.20;;;;;;4997417;28;19933;-81
2022/08/09 09:44:26;;;;;;;;;;;30.40;74.60;;;;;;5027439;28;19925;-81
2022/08/09 09:46:58;;;;;;;;;;;30.30;75.20;;;;;;5005507;28;19933;-81
2022/08/09 09:49:26;;;;;;;;;;;30.00;74.50;;;;;;5038333;28;20079;-82
2022/08/09 09:52:01;;;;;;;;;;;29.50;74.30;;;;;;5011897;28;20034;-81
2022/08/09 09:54:35;;;;;;;;;;;29.20;74.40;;;;;;5031257;28;19927;-81
2022/08/09 09:57:13;;;;;;;;;;;28.70;74.70;;;;;;5028619;28;19943;-81
2022/08/09 09:59:40;;;;;;;;;;;28.20;75.90;;;;;;5038464;28;19934;-81
2022/08/09 10:02:09;;;;;;;;;;;27.70;76.70;;;;;;5029031;28;19933;-82
2022/08/09 10:04:41;;;;;;;;;;;27.30;78.00;;;;;;5034763;28;19933;-79
2022/08/09 10:07:23;;;;;;;;;;;26.90;78.50;;;;;;5021111;28;19933;-80
2022/08/09 10:09:52;;;;;;;;;;;26.50;79.30;;;;;;5020460;28;19933;-82
2022/08/09 10:12:27;;;;;;;;;;;26.40;80.00;;;;;;5028976;28;19936;-81
2022/08/09 10:15:03;;;;;;;;;;;26.30;80.50;;;;;;5030227;28;20360;-81
2022/08/09 10:17:32;;;;;;;;;;;26.20;81.50;;;;;;5035425;28;19929;-81
2022/08/09 10:20:00;;;;;;;;;;;26.20;81.50;;;;;;5018742;28;20023;-81
2022/08/09 10:22:31;;;;;;;;;;;26.20;82.60;;;;;;5016040;28;19933;-82
2022/08/09 10:25:00;;;;;;;;;;;26.20;82.30;;;;;;5012508;28;20419;-81
2022/08/09 10:27:27;;;;;;;;;;;26.20;81.90;;;;;;5007991;28;19936;-81
2022/08/09 10:29:55;;;;;;;;;;;26.20;81.80;;;;;;5012299;28;20010;-79
2022/08/09 10:32:22;;;;;;;;;;;26.20;83.00;;;;;;5010364;28;19960;-79
2022/08/09 10:34:49;;;;;;;;;;;26.30;83.30;;;;;;5030504;28;20623;-81
2022/08/09 10:37:18;;;;;;;;;;;26.20;83.40;;;;;;5026093;28;19935;-79
2022/08/09 10:39:46;;;;;;;;;;;26.20;81.90;;;;;;5012054;28;19929;-80
2022/08/09 10:42:15;;;;;;;;;;;26.20;82.40;;;;;;5024124;28;19955;-79
2022/08/09 10:44:45;;;;;;;;;;;26.30;82.50;;;;;;5014385;28;20016;-79
2022/08/09 10:47:22;;;;;;;;;;;26.20;82.20;;;;;;5020756;28;19956;-80
2022/08/09 10:49:54;;;;;;;;;;;26.20;81.80;;;;;;5029220;28;19964;-81
2022/08/09 10:52:29;;;;;;;;;;;26.20;82.40;;;;;;5024518;28;19933;-82
2022/08/09 10:55:01;;;;;;;;;;;26.20;82.60;;;;;;5017671;28;20011;-83
2022/08/09 10:57:36;;;;;;;;;;;26.20;82.50;;;;;;5029436;28;19939;-82
2022/08/09 11:00:23;;;;;;;;;;;26.30;82.70;;;;;;5028349;28;19940;-83
2022/08/09 11:02:50;;;;;;;;;;;26.40;82.90;;;;;;5013725;28;19929;-82
2022/08/09 11:05:18;;;;;;;;;;;26.50;82.80;;;;;;5014790;28;19948;-81
2022/08/09 11:07:45;;;;;;;;;;;25.90;82.10;;;;;;5024486;28;19928;-81
2022/08/09 11:10:12;;;;;;;;;;;26.80;82.40;;;;;;5036879;28;19952;-82
2022/08/09 11:12:43;;;;;;;;;;;26.90;81.20;;;;;;5017785;28;20010;-82
2022/08/09 11:15:23;;;;;;;;;;;26.90;80.90;;;;;;5035774;28;19933;-81
2022/08/09 11:17:54;;;;;;;;;;;27.00;80.40;;;;;;5035548;28;19933;-82
2022/08/09 11:20:46;;;;;;;;;;;27.00;80.90;;;;;;5018369;28;19941;-82
2022/08/09 11:23:13;;;;;;;;;;;27.10;80.10;;;;;;5019078;28;19928;-81
2022/08/09 11:25:45;;;;;;;;;;;27.10;80.20;;;;;;5038558;28;19940;-82
2022/08/09 11:28:32;;;;;;;;;;;27.30;80.30;;;;;;5012374;28;19936;-82
2022/08/09 11:31:02;;;;;;;;;;;27.40;79.90;;;;;;5031390;28;19968;-81
2022/08/09 11:33:43;;;;;;;;;;;27.40;79.60;;;;;;5014734;28;19929;-82
2022/08/09 11:36:11;;;;;;;;;;;27.50;79.10;;;;;;5031774;28;19925;-82
2022/08/09 11:38:38;;;;;;;;;;;27.60;79.70;;;;;;5022853;28;19929;-82
2022/08/09 11:41:27;;;;;;;;;;;27.80;79.60;;;;;;5018046;28;20395;-83
2022/08/09 11:43:54;;;;;;;;;;;27.90;79.60;;;;;;5032299;28;19925;-82
2022/08/09 11:46:23;;;;;;;;;;;28.20;79.60;;;;;;5018003;28;20451;-82
2022/08/09 11:48:51;;;;;;;;;;;28.40;79.00;;;;;;5028474;28;19933;-81
2022/08/09 11:51:19;;;;;;;;;;;28.50;78.50;;;;;;5035042;28;19996;-82
2022/08/09 11:53:48;;;;;;;;;;;28.70;78.80;;;;;;5031101;28;19921;-82
2022/08/09 11:56:28;;;;;;;;;;;28.90;77.50;;;;;;5030836;28;20020;-83
2022/08/09 11:58:56;;;;;;;;;;;29.10;77.00;;;;;;5031003;28;20357;-82
2022/08/09 12:01:36;;;;;;;;;;;29.20;76.20;;;;;;5011218;28;20355;-82
2022/08/09 12:04:03;;;;;;;;;;;29.20;74.90;;;;;;5029925;28;20780;-83
2022/08/09 12:06:31;;;;;;;;;;;29.00;75.30;;;;;;5025347;28;20202;-83
2022/08/09 12:08:59;;;;;;;;;;;28.90;75.50;;;;;;5008816;28;19925;-82
2022/08/09 12:11:27;;;;;;;;;;;28.90;75.00;;;;;;5027831;28;19925;-82
2022/08/09 12:13:58;;;;;;;;;;;28.90;75.20;;;;;;5010664;28;20466;-82
2022/08/09 12:16:27;;;;;;;;;;;28.90;75.10;;;;;;5027520;28;19977;-83
2022/08/09 12:18:56;;;;;;;;;;;28.80;75.10;;;;;;5020143;28;19957;-83
2022/08/09 12:21:30;;;;;;;;;;;28.80;75.00;;;;;;5006584;28;19930;-84
2022/08/09 12:23:57;;;;;;;;;;;28.80;75.10;;;;;;5008692;28;19930;-82
2022/08/09 12:26:25;;;;;;;;;;;28.80;75.40;;;;;;5022605;28;19933;-81
2022/08/09 12:28:53;;;;;;;;;;;28.90;74.90;;;;;;5007951;28;20312;-82
2022/08/09 12:31:26;;;;;;;;;;;28.90;75.00;;;;;;5017059;28;19941;-81
2022/08/09 12:33:53;;;;;;;;;;;28.90;74.70;;;;;;5022118;28;19988;-82
2022/08/09 12:36:23;;;;;;;;;;;28.90;75.10;;;;;;5003305;28;19926;-82
2022/08/09 12:38:53;;;;;;;;;;;29.00;73.90;;;;;;5021569;28;19956;-82
2022/08/09 12:41:24;;;;;;;;;;;29.10;74.60;;;;;;5021639;28;19947;-80
2022/08/09 12:43:52;;;;;;;;;;;29.20;74.20;;;;;;5024290;28;20550;-81
2022/08/09 12:46:19;;;;;;;;;;;29.30;74.20;;;;;;5021143;28;19933;-80
2022/08/09 12:48:46;;;;;;;;;;;29.50;74.60;;;;;;5018327;28;19933;-81
2022/08/09 12:51:14;;;;;;;;;;;29.70;73.50;;;;;;5002607;28;19933;-81
2022/08/09 12:53:43;;;;;;;;;;;29.80;71.60;;;;;;5015493;28;19941;-80
2022/08/09 12:56:12;;;;;;;;;;;29.80;71.60;;;;;;5019456;28;19940;-81
2022/08/09 12:58:41;;;;;;;;;;;29.80;71.50;;;;;;5007058;28;19933;-82
2022/08/09 13:01:22;;;;;;;;;;;29.80;71.70;;;;;;5018604;28;19929;-81
2022/08/09 13:03:57;;;;;;;;;;;29.90;71.10;;;;;;4994779;28;19925;-81
2022/08/09 13:06:25;;;;;;;;;;;30.00;71.70;;;;;;5024995;28;20438;-81
2022/08/09 13:09:02;;;;;;;;;;;30.00;71.20;;;;;;5006490;28;19941;-85
2022/08/09 13:11:31;;;;;;;;;;;30.20;71.30;;;;;;5016435;28;19929;-82
2022/08/09 13:13:58;;;;;;;;;;;30.20;71.70;;;;;;4999802;28;19929;-81
2022/08/09 13:16:37;;;;;;;;;;;30.30;71.40;;;;;;5005296;28;20337;-80
2022/08/09 13:19:05;;;;;;;;;;;30.40;70.90;;;;;;5000606;28;20430;-81
2022/08/09 13:21:35;;;;;;;;;;;30.50;70.90;;;;;;5004789;28;20364;-81
2022/08/09 13:24:08;;;;;;;;;;;30.50;69.80;;;;;;5001271;28;22217;-82
2022/08/09 13:26:37;;;;;;;;;;;30.40;69.10;;;;;;4992246;28;20000;-82
2022/08/09 13:29:07;;;;;;;;;;;30.30;68.90;;;;;;4986206;28;19928;-85
2022/08/09 13:31:35;;;;;;;;;;;30.20;69.10;;;;;;5010961;28;19967;-81
2022/08/09 13:34:03;;;;;;;;;;;30.10;69.40;;;;;;5010103;28;20656;-84
2022/08/09 13:36:32;;;;;;;;;;;30.00;69.60;;;;;;4992024;28;20730;-82
2022/08/09 13:39:27;;;;;;;;;;;30.00;69.70;;;;;;5005147;28;19931;-82
2022/08/09 13:42:02;;;;;;;;;;;30.20;70.10;;;;;;5002320;28;19960;-83
2022/08/09 13:44:31;;;;;;;;;;;30.20;69.50;;;;;;5003923;28;20514;-81
2022/08/09 13:46:59;;;;;;;;;;;30.20;69.00;;;;;;5000888;28;19948;-81
2022/08/09 13:49:34;;;;;;;;;;;30.10;68.60;;;;;;5017430;28;20059;-82
2022/08/09 13:52:01;;;;;;;;;;;30.10;69.40;;;;;;5012980;28;20211;-84
2022/08/09 13:54:28;;;;;;;;;;;30.20;69.70;;;;;;5017631;28;20016;-80
2022/08/09 13:56:55;;;;;;;;;;;30.50;69.40;;;;;;5009096;28;19940;-79
2022/08/09 13:59:24;;;;;;;;;;;30.70;67.80;;;;;;5006601;28;20021;-80
2022/08/09 14:01:51;;;;;;;;;;;30.70;68.10;;;;;;5005705;28;20034;-80
2022/08/09 14:04:19;;;;;;;;;;;30.70;68.00;;;;;;5024302;28;20388;-79
2022/08/09 14:06:52;;;;;;;;;;;30.80;68.40;;;;;;5005965;28;19933;-79
2022/08/09 14:09:19;;;;;;;;;;;30.80;68.00;;;;;;5017530;28;19950;-81
2022/08/09 14:11:51;;;;;;;;;;;30.70;67.50;;;;;;5004051;28;20338;-79
2022/08/09 14:14:18;;;;;;;;;;;30.80;67.70;;;;;;5006332;28;19929;-79
2022/08/09 14:16:47;;;;;;;;;;;30.80;66.80;;;;;;5013564;28;19969;-79
2022/08/09 14:19:14;;;;;;;;;;;30.70;66.80;;;;;;4997873;28;20466;-80
2022/08/09 14:21:41;;;;;;;;;;;30.70;67.30;;;;;;5016528;28;20641;-79
2022/08/09 14:24:09;;;;;;;;;;;30.90;67.50;;;;;;5010494;28;19929;-79
2022/08/09 14:26:36;;;;;;;;;;;31.00;66.50;;;;;;5009326;28;20412;-80